sensor_id;sensor_type;location;lat;lon;timestamp;P1;P2;P0
64613;PMS5003;51025;37.772;-122.432;2023-06-22T00:00:00;5;5;
64613;PMS5003;51025;37.772;-122.432;2023-06-22T00:02:35;6;6;
64613;PMS5003;51025;37.772;-122.432;2023-06-22T00:05:03;6;5;
64613;PMS5003;51025;37.772;-122.432;2023-06-22T00:07:31;5;5;
64613;PMS5003;51025;37.772;-122.432;2023-06-22T00:10:00;7;5;
64613;PMS5003;51025;37.772;-122.432;2023-06-22T00:12:28;6;5;
64613;PMS5003;51025;37.772;-122.432;2023-06-22T00:14:56;5;4;
64613;PMS5003;51025;37.772;-122.432;2023-06-22T00:17:24;5;5;
64613;PMS5003;51025;37.772;-122.432;2023-06-22T00:19:52;4;4;
64613;PMS5003;51025;37.772;-122.432;2023-06-22T00:22:20;5;5;
64613;PMS5003;51025;37.772;-122.432;2023-06-22T00:24:49;7;7;
64613;PMS5003;51025;37.772;-122.432;2023-06-22T00:27:17;5;5;
64613;PMS5003;51025;37.772;-122.432;2023-06-22T00:29:45;7;7;
64613;PMS5003;51025;37.772;-122.432;2023-06-22T00:32:14;7;6;
64613;PMS5003;51025;37.772;-122.432;2023-06-22T00:34:42;7;6;
64613;PMS5003;51025;37.772;-122.432;2023-06-22T00:37:10;8;6;
64613;PMS5003;51025;37.772;-122.432;2023-06-22T00:39:38;7;6;
64613;PMS5003;51025;37.772;-122.432;2023-06-22T00:42:07;7;6;
64613;PMS5003;51025;37.772;-122.432;2023-06-22T00:44:36;6;6;
64613;PMS5003;51025;37.772;-122.432;2023-06-22T00:47:04;6;6;
64613;PMS5003;51025;37.772;-122.432;2023-06-22T00:49:33;8;7;
64613;PMS5003;51025;37.772;-122.432;2023-06-22T00:52:02;9;5;
64613;PMS5003;51025;37.772;-122.432;2023-06-22T00:54:32;6;6;
64613;PMS5003;51025;37.772;-122.432;2023-06-22T00:57:00;9;9;
64613;PMS5003;51025;37.772;-122.432;2023-06-22T00:59:28;10;10;
64613;PMS5003;51025;37.772;-122.432;2023-06-22T01:01:56;17;15;
64613;PMS5003;51025;37.772;-122.432;2023-06-22T01:04:33;38;29;
64613;PMS5003;51025;37.772;-122.432;2023-06-22T01:07:07;35;31;
64613;PMS5003;51025;37.772;-122.432;2023-06-22T01:09:44;30;27;
64613;PMS5003;51025;37.772;-122.432;2023-06-22T01:12:19;38;33;
64613;PMS5003;51025;37.772;-122.432;2023-06-22T01:14:49;38;27;
64613;PMS5003;51025;37.772;-122.432;2023-06-22T01:17:22;23;22;
64613;PMS5003;51025;37.772;-122.432;2023-06-22T01:19:54;34;24;
64613;PMS5003;51025;37.772;-122.432;2023-06-22T01:22:24;23;19;
64613;PMS5003;51025;37.772;-122.432;2023-06-22T01:25:00;18;16;
64613;PMS5003;51025;37.772;-122.432;2023-06-22T01:27:39;25;19;
64613;PMS5003;51025;37.772;-122.432;2023-06-22T01:30:17;18;16;
64613;PMS5003;51025;37.772;-122.432;2023-06-22T01:32:46;22;16;
64613;PMS5003;51025;37.772;-122.432;2023-06-22T01:35:16;19;14;
64613;PMS5003;51025;37.772;-122.432;2023-06-22T01:37:47;18;14;
64613;PMS5003;51025;37.772;-122.432;2023-06-22T01:40:17;22;15;
64613;PMS5003;51025;37.772;-122.432;2023-06-22T01:42:46;14;10;
64613;PMS5003;51025;37.772;-122.432;2023-06-22T01:45:17;15;11;
64613;PMS5003;51025;37.772;-122.432;2023-06-22T01:47:47;14;9;
64613;PMS5003;51025;37.772;-122.432;2023-06-22T01:50:15;14;12;
64613;PMS5003;51025;37.772;-122.432;2023-06-22T01:52:44;9;9;
64613;PMS5003;51025;37.772;-122.432;2023-06-22T01:55:12;11;10;
64613;PMS5003;51025;37.772;-122.432;2023-06-22T01:57:41;13;10;
64613;PMS5003;51025;37.772;-122.432;2023-06-22T02:00:10;10;10;
64613;PMS5003;51025;37.772;-122.432;2023-06-22T02:02:43;13;11;
64613;PMS5003;51025;37.772;-122.432;2023-06-22T02:05:20;10;10;
64613;PMS5003;51025;37.772;-122.432;2023-06-22T02:07:55;14;12;
64613;PMS5003;51025;37.772;-122.432;2023-06-22T02:10:35;14;13;
64613;PMS5003;51025;37.772;-122.432;2023-06-22T02:13:06;12;11;
64613;PMS5003;51025;37.772;-122.432;2023-06-22T02:15:36;14;9;
64613;PMS5003;51025;37.772;-122.432;2023-06-22T02:18:05;12;11;
64613;PMS5003;51025;37.772;-122.432;2023-06-22T02:20:33;13;10;
64613;PMS5003;51025;37.772;-122.432;2023-06-22T02:23:05;11;9;
64613;PMS5003;51025;37.772;-122.432;2023-06-22T02:25:34;13;11;
64613;PMS5003;51025;37.772;-122.432;2023-06-22T02:28:03;13;10;
64613;PMS5003;51025;37.772;-122.432;2023-06-22T02:30:31;13;11;
64613;PMS5003;51025;37.772;-122.432;2023-06-22T02:32:59;10;10;
64613;PMS5003;51025;37.772;-122.432;2023-06-22T02:35:28;9;9;
64613;PMS5003;51025;37.772;-122.432;2023-06-22T02:37:56;10;9;
64613;PMS5003;51025;37.772;-122.432;2023-06-22T02:40:24;10;10;
64613;PMS5003;51025;37.772;-122.432;2023-06-22T02:42:53;8;8;
64613;PMS5003;51025;37.772;-122.432;2023-06-22T02:45:22;10;10;
64613;PMS5003;51025;37.772;-122.432;2023-06-22T02:47:50;10;10;
64613;PMS5003;51025;37.772;-122.432;2023-06-22T02:50:19;15;15;
64613;PMS5003;51025;37.772;-122.432;2023-06-22T02:52:48;11;11;
64613;PMS5003;51025;37.772;-122.432;2023-06-22T02:55:16;14;11;
64613;PMS5003;51025;37.772;-122.432;2023-06-22T02:57:44;10;9;
64613;PMS5003;51025;37.772;-122.432;2023-06-22T03:00:13;11;10;
64613;PMS5003;51025;37.772;-122.432;2023-06-22T03:02:42;13;10;
64613;PMS5003;51025;37.772;-122.432;2023-06-22T03:05:11;9;9;
64613;PMS5003;51025;37.772;-122.432;2023-06-22T03:07:41;11;11;
64613;PMS5003;51025;37.772;-122.432;2023-06-22T03:10:10;8;8;
64613;PMS5003;51025;37.772;-122.432;2023-06-22T03:12:40;10;9;
64613;PMS5003;51025;37.772;-122.432;2023-06-22T03:15:10;9;9;
64613;PMS5003;51025;37.772;-122.432;2023-06-22T03:17:39;13;9;
64613;PMS5003;51025;37.772;-122.432;2023-06-22T03:20:08;14;8;
64613;PMS5003;51025;37.772;-122.432;2023-06-22T03:22:38;8;7;
64613;PMS5003;51025;37.772;-122.432;2023-06-22T03:25:07;10;8;
64613;PMS5003;51025;37.772;-122.432;2023-06-22T03:27:36;10;10;
64613;PMS5003;51025;37.772;-122.432;2023-06-22T03:30:06;9;9;
64613;PMS5003;51025;37.772;-122.432;2023-06-22T03:32:37;14;12;
64613;PMS5003;51025;37.772;-122.432;2023-06-22T03:35:06;11;8;
64613;PMS5003;51025;37.772;-122.432;2023-06-22T03:37:34;11;9;
64613;PMS5003;51025;37.772;-122.432;2023-06-22T03:40:02;14;10;
64613;PMS5003;51025;37.772;-122.432;2023-06-22T03:42:33;9;8;
64613;PMS5003;51025;37.772;-122.432;2023-06-22T03:45:01;12;11;
64613;PMS5003;51025;37.772;-122.432;2023-06-22T03:47:30;10;10;
64613;PMS5003;51025;37.772;-122.432;2023-06-22T03:49:59;11;9;
64613;PMS5003;51025;37.772;-122.432;2023-06-22T03:52:28;13;9;
64613;PMS5003;51025;37.772;-122.432;2023-06-22T03:54:56;10;9;
64613;PMS5003;51025;37.772;-122.432;2023-06-22T03:57:24;10;9;
64613;PMS5003;51025;37.772;-122.432;2023-06-22T03:59:54;9;9;
64613;PMS5003;51025;37.772;-122.432;2023-06-22T04:02:23;13;10;
64613;PMS5003;51025;37.772;-122.432;2023-06-22T04:04:51;12;11;
64613;PMS5003;51025;37.772;-122.432;2023-06-22T04:07:19;12;11;
64613;PMS5003;51025;37.772;-122.432;2023-06-22T04:09:48;12;10;
64613;PMS5003;51025;37.772;-122.432;2023-06-22T04:12:16;8;7;
64613;PMS5003;51025;37.772;-122.432;2023-06-22T04:14:44;13;10;
64613;PMS5003;51025;37.772;-122.432;2023-06-22T04:17:13;14;9;
64613;PMS5003;51025;37.772;-122.432;2023-06-22T04:19:42;9;9;
64613;PMS5003;51025;37.772;-122.432;2023-06-22T04:22:10;10;9;
64613;PMS5003;51025;37.772;-122.432;2023-06-22T04:24:38;12;10;
64613;PMS5003;51025;37.772;-122.432;2023-06-22T04:27:07;17;12;
64613;PMS5003;51025;37.772;-122.432;2023-06-22T04:29:35;14;12;
64613;PMS5003;51025;37.772;-122.432;2023-06-22T04:32:04;11;9;
64613;PMS5003;51025;37.772;-122.432;2023-06-22T04:34:34;9;9;
64613;PMS5003;51025;37.772;-122.432;2023-06-22T04:37:02;8;8;
64613;PMS5003;51025;37.772;-122.432;2023-06-22T04:39:31;14;12;
64613;PMS5003;51025;37.772;-122.432;2023-06-22T04:42:00;11;11;
64613;PMS5003;51025;37.772;-122.432;2023-06-22T04:44:29;13;12;
64613;PMS5003;51025;37.772;-122.432;2023-06-22T04:46:58;13;13;
64613;PMS5003;51025;37.772;-122.432;2023-06-22T04:49:27;11;10;
64613;PMS5003;51025;37.772;-122.432;2023-06-22T04:52:02;13;11;
64613;PMS5003;51025;37.772;-122.432;2023-06-22T04:54:32;15;12;
64613;PMS5003;51025;37.772;-122.432;2023-06-22T04:57:00;13;12;
64613;PMS5003;51025;37.772;-122.432;2023-06-22T04:59:30;13;12;
64613;PMS5003;51025;37.772;-122.432;2023-06-22T05:01:59;12;12;
64613;PMS5003;51025;37.772;-122.432;2023-06-22T05:04:29;11;9;
64613;PMS5003;51025;37.772;-122.432;2023-06-22T05:06:57;11;11;
64613;PMS5003;51025;37.772;-122.432;2023-06-22T05:09:27;18;12;
64613;PMS5003;51025;37.772;-122.432;2023-06-22T05:11:56;13;12;
64613;PMS5003;51025;37.772;-122.432;2023-06-22T05:14:24;10;10;
64613;PMS5003;51025;37.772;-122.432;2023-06-22T05:16:52;12;10;
64613;PMS5003;51025;37.772;-122.432;2023-06-22T05:19:20;13;12;
64613;PMS5003;51025;37.772;-122.432;2023-06-22T05:21:48;11;11;
64613;PMS5003;51025;37.772;-122.432;2023-06-22T05:24:16;15;11;
64613;PMS5003;51025;37.772;-122.432;2023-06-22T05:26:45;15;14;
64613;PMS5003;51025;37.772;-122.432;2023-06-22T05:29:13;10;10;
64613;PMS5003;51025;37.772;-122.432;2023-06-22T05:31:42;9;9;
64613;PMS5003;51025;37.772;-122.432;2023-06-22T05:34:11;12;11;
64613;PMS5003;51025;37.772;-122.432;2023-06-22T05:36:39;11;11;
64613;PMS5003;51025;37.772;-122.432;2023-06-22T05:39:11;18;12;
64613;PMS5003;51025;37.772;-122.432;2023-06-22T05:41:40;17;15;
64613;PMS5003;51025;37.772;-122.432;2023-06-22T05:44:09;12;12;
64613;PMS5003;51025;37.772;-122.432;2023-06-22T05:46:39;11;11;
64613;PMS5003;51025;37.772;-122.432;2023-06-22T05:49:08;11;11;
64613;PMS5003;51025;37.772;-122.432;2023-06-22T05:51:37;12;10;
64613;PMS5003;51025;37.772;-122.432;2023-06-22T05:54:05;12;10;
64613;PMS5003;51025;37.772;-122.432;2023-06-22T05:56:33;11;9;
64613;PMS5003;51025;37.772;-122.432;2023-06-22T05:59:01;14;12;
64613;PMS5003;51025;37.772;-122.432;2023-06-22T06:01:31;12;11;
64613;PMS5003;51025;37.772;-122.432;2023-06-22T06:03:59;10;9;
64613;PMS5003;51025;37.772;-122.432;2023-06-22T06:06:28;12;12;
64613;PMS5003;51025;37.772;-122.432;2023-06-22T06:08:57;11;11;
64613;PMS5003;51025;37.772;-122.432;2023-06-22T06:11:25;17;14;
64613;PMS5003;51025;37.772;-122.432;2023-06-22T06:13:53;14;12;
64613;PMS5003;51025;37.772;-122.432;2023-06-22T06:16:21;11;10;
64613;PMS5003;51025;37.772;-122.432;2023-06-22T06:18:50;11;10;
64613;PMS5003;51025;37.772;-122.432;2023-06-22T06:21:18;10;10;
64613;PMS5003;51025;37.772;-122.432;2023-06-22T06:23:47;12;12;
64613;PMS5003;51025;37.772;-122.432;2023-06-22T06:26:15;10;9;
64613;PMS5003;51025;37.772;-122.432;2023-06-22T06:28:44;14;11;
64613;PMS5003;51025;37.772;-122.432;2023-06-22T06:31:14;9;9;
64613;PMS5003;51025;37.772;-122.432;2023-06-22T06:33:42;11;10;
64613;PMS5003;51025;37.772;-122.432;2023-06-22T06:36:11;13;12;
64613;PMS5003;51025;37.772;-122.432;2023-06-22T06:38:39;11;11;
64613;PMS5003;51025;37.772;-122.432;2023-06-22T06:41:08;18;15;
64613;PMS5003;51025;37.772;-122.432;2023-06-22T06:43:36;17;15;
64613;PMS5003;51025;37.772;-122.432;2023-06-22T06:46:04;13;9;
64613;PMS5003;51025;37.772;-122.432;2023-06-22T06:48:32;14;14;
64613;PMS5003;51025;37.772;-122.432;2023-06-22T06:51:01;13;10;
64613;PMS5003;51025;37.772;-122.432;2023-06-22T06:53:29;12;11;
64613;PMS5003;51025;37.772;-122.432;2023-06-22T06:55:57;13;12;
64613;PMS5003;51025;37.772;-122.432;2023-06-22T06:58:25;13;11;
64613;PMS5003;51025;37.772;-122.432;2023-06-22T07:00:53;14;12;
64613;PMS5003;51025;37.772;-122.432;2023-06-22T07:03:22;12;12;
64613;PMS5003;51025;37.772;-122.432;2023-06-22T07:05:50;13;9;
64613;PMS5003;51025;37.772;-122.432;2023-06-22T07:08:19;10;9;
64613;PMS5003;51025;37.772;-122.432;2023-06-22T07:10:47;14;12;
64613;PMS5003;51025;37.772;-122.432;2023-06-22T07:13:16;11;11;
64613;PMS5003;51025;37.772;-122.432;2023-06-22T07:15:44;11;11;
64613;PMS5003;51025;37.772;-122.432;2023-06-22T07:18:13;14;12;
64613;PMS5003;51025;37.772;-122.432;2023-06-22T07:20:41;16;12;
64613;PMS5003;51025;37.772;-122.432;2023-06-22T07:23:09;19;13;
64613;PMS5003;51025;37.772;-122.432;2023-06-22T07:25:37;12;12;
64613;PMS5003;51025;37.772;-122.432;2023-06-22T07:28:06;15;15;
64613;PMS5003;51025;37.772;-122.432;2023-06-22T07:30:35;13;11;
64613;PMS5003;51025;37.772;-122.432;2023-06-22T07:33:04;15;13;
64613;PMS5003;51025;37.772;-122.432;2023-06-22T07:35:32;17;13;
64613;PMS5003;51025;37.772;-122.432;2023-06-22T07:38:00;17;12;
64613;PMS5003;51025;37.772;-122.432;2023-06-22T07:40:29;14;13;
64613;PMS5003;51025;37.772;-122.432;2023-06-22T07:42:57;21;15;
64613;PMS5003;51025;37.772;-122.432;2023-06-22T07:45:26;23;15;
64613;PMS5003;51025;37.772;-122.432;2023-06-22T07:47:54;20;15;
64613;PMS5003;51025;37.772;-122.432;2023-06-22T07:50:22;16;14;
64613;PMS5003;51025;37.772;-122.432;2023-06-22T07:52:51;16;14;
64613;PMS5003;51025;37.772;-122.432;2023-06-22T07:55:19;19;15;
64613;PMS5003;51025;37.772;-122.432;2023-06-22T07:57:48;23;16;
64613;PMS5003;51025;37.772;-122.432;2023-06-22T08:00:17;20;16;
64613;PMS5003;51025;37.772;-122.432;2023-06-22T08:02:46;18;15;
64613;PMS5003;51025;37.772;-122.432;2023-06-22T08:05:15;14;14;
64613;PMS5003;51025;37.772;-122.432;2023-06-22T08:07:43;21;17;
64613;PMS5003;51025;37.772;-122.432;2023-06-22T08:10:12;15;13;
64613;PMS5003;51025;37.772;-122.432;2023-06-22T08:12:40;17;10;
64613;PMS5003;51025;37.772;-122.432;2023-06-22T08:15:09;20;10;
64613;PMS5003;51025;37.772;-122.432;2023-06-22T08:17:38;16;13;
64613;PMS5003;51025;37.772;-122.432;2023-06-22T08:20:07;12;10;
64613;PMS5003;51025;37.772;-122.432;2023-06-22T08:22:36;15;12;
64613;PMS5003;51025;37.772;-122.432;2023-06-22T08:25:04;14;14;
64613;PMS5003;51025;37.772;-122.432;2023-06-22T08:27:34;16;15;
64613;PMS5003;51025;37.772;-122.432;2023-06-22T08:30:02;11;9;
64613;PMS5003;51025;37.772;-122.432;2023-06-22T08:32:32;20;13;
64613;PMS5003;51025;37.772;-122.432;2023-06-22T08:35:00;13;11;
64613;PMS5003;51025;37.772;-122.432;2023-06-22T08:37:28;13;11;
64613;PMS5003;51025;37.772;-122.432;2023-06-22T08:39:56;20;16;
64613;PMS5003;51025;37.772;-122.432;2023-06-22T08:42:25;14;12;
64613;PMS5003;51025;37.772;-122.432;2023-06-22T08:44:54;19;9;
64613;PMS5003;51025;37.772;-122.432;2023-06-22T08:47:22;13;11;
64613;PMS5003;51025;37.772;-122.432;2023-06-22T08:49:50;14;12;
64613;PMS5003;51025;37.772;-122.432;2023-06-22T08:52:19;11;9;
64613;PMS5003;51025;37.772;-122.432;2023-06-22T08:54:47;13;10;
64613;PMS5003;51025;37.772;-122.432;2023-06-22T08:57:15;15;13;
64613;PMS5003;51025;37.772;-122.432;2023-06-22T08:59:44;12;11;
64613;PMS5003;51025;37.772;-122.432;2023-06-22T09:02:13;9;8;
64613;PMS5003;51025;37.772;-122.432;2023-06-22T09:04:42;9;9;
64613;PMS5003;51025;37.772;-122.432;2023-06-22T09:07:10;12;11;
64613;PMS5003;51025;37.772;-122.432;2023-06-22T09:09:39;14;13;
64613;PMS5003;51025;37.772;-122.432;2023-06-22T09:12:08;13;10;
64613;PMS5003;51025;37.772;-122.432;2023-06-22T09:14:36;18;11;
64613;PMS5003;51025;37.772;-122.432;2023-06-22T09:17:05;9;8;
64613;PMS5003;51025;37.772;-122.432;2023-06-22T09:19:33;11;10;
64613;PMS5003;51025;37.772;-122.432;2023-06-22T09:22:02;12;12;
64613;PMS5003;51025;37.772;-122.432;2023-06-22T09:24:30;10;9;
64613;PMS5003;51025;37.772;-122.432;2023-06-22T09:26:58;10;9;
64613;PMS5003;51025;37.772;-122.432;2023-06-22T09:29:27;12;10;
64613;PMS5003;51025;37.772;-122.432;2023-06-22T09:31:55;9;9;
64613;PMS5003;51025;37.772;-122.432;2023-06-22T09:34:24;11;9;
64613;PMS5003;51025;37.772;-122.432;2023-06-22T09:36:51;10;8;
64613;PMS5003;51025;37.772;-122.432;2023-06-22T09:39:20;13;8;
64613;PMS5003;51025;37.772;-122.432;2023-06-22T09:41:48;7;7;
64613;PMS5003;51025;37.772;-122.432;2023-06-22T09:44:17;10;10;
64613;PMS5003;51025;37.772;-122.432;2023-06-22T09:46:45;9;8;
64613;PMS5003;51025;37.772;-122.432;2023-06-22T09:49:13;11;7;
64613;PMS5003;51025;37.772;-122.432;2023-06-22T09:51:42;11;8;
64613;PMS5003;51025;37.772;-122.432;2023-06-22T09:54:10;8;8;
64613;PMS5003;51025;37.772;-122.432;2023-06-22T09:56:39;8;7;
64613;PMS5003;51025;37.772;-122.432;2023-06-22T09:59:07;7;5;
64613;PMS5003;51025;37.772;-122.432;2023-06-22T10:01:35;9;8;
64613;PMS5003;51025;37.772;-122.432;2023-06-22T10:04:03;7;7;
64613;PMS5003;51025;37.772;-122.432;2023-06-22T10:06:31;9;9;
64613;PMS5003;51025;37.772;-122.432;2023-06-22T10:09:00;7;7;
64613;PMS5003;51025;37.772;-122.432;2023-06-22T10:11:27;9;7;
64613;PMS5003;51025;37.772;-122.432;2023-06-22T10:13:56;6;6;
64613;PMS5003;51025;37.772;-122.432;2023-06-22T10:16:29;8;8;
64613;PMS5003;51025;37.772;-122.432;2023-06-22T10:18:57;7;7;
64613;PMS5003;51025;37.772;-122.432;2023-06-22T10:21:25;12;7;
64613;PMS5003;51025;37.772;-122.432;2023-06-22T10:23:54;11;9;
64613;PMS5003;51025;37.772;-122.432;2023-06-22T10:26:22;14;13;
64613;PMS5003;51025;37.772;-122.432;2023-06-22T10:28:50;8;8;
64613;PMS5003;51025;37.772;-122.432;2023-06-22T10:31:28;6;6;
64613;PMS5003;51025;37.772;-122.432;2023-06-22T10:33:57;9;8;
64613;PMS5003;51025;37.772;-122.432;2023-06-22T10:36:25;8;7;
64613;PMS5003;51025;37.772;-122.432;2023-06-22T10:38:53;6;6;
64613;PMS5003;51025;37.772;-122.432;2023-06-22T10:41:21;12;8;
64613;PMS5003;51025;37.772;-122.432;2023-06-22T10:43:49;7;6;
64613;PMS5003;51025;37.772;-122.432;2023-06-22T10:46:17;8;7;
64613;PMS5003;51025;37.772;-122.432;2023-06-22T10:48:45;14;9;
64613;PMS5003;51025;37.772;-122.432;2023-06-22T10:51:13;9;8;
64613;PMS5003;51025;37.772;-122.432;2023-06-22T10:53:42;7;7;
64613;PMS5003;51025;37.772;-122.432;2023-06-22T10:56:10;7;6;
64613;PMS5003;51025;37.772;-122.432;2023-06-22T10:58:38;10;6;
64613;PMS5003;51025;37.772;-122.432;2023-06-22T11:01:06;7;6;
64613;PMS5003;51025;37.772;-122.432;2023-06-22T11:03:34;13;13;
64613;PMS5003;51025;37.772;-122.432;2023-06-22T11:06:03;10;5;
64613;PMS5003;51025;37.772;-122.432;2023-06-22T11:08:30;8;8;
64613;PMS5003;51025;37.772;-122.432;2023-06-22T11:10:59;6;6;
64613;PMS5003;51025;37.772;-122.432;2023-06-22T11:13:27;5;5;
64613;PMS5003;51025;37.772;-122.432;2023-06-22T11:15:55;10;10;
64613;PMS5003;51025;37.772;-122.432;2023-06-22T11:18:23;9;6;
64613;PMS5003;51025;37.772;-122.432;2023-06-22T11:20:52;6;6;
64613;PMS5003;51025;37.772;-122.432;2023-06-22T11:23:20;7;5;
64613;PMS5003;51025;37.772;-122.432;2023-06-22T11:25:48;4;4;
64613;PMS5003;51025;37.772;-122.432;2023-06-22T11:28:16;5;5;
64613;PMS5003;51025;37.772;-122.432;2023-06-22T11:30:44;7;6;
64613;PMS5003;51025;37.772;-122.432;2023-06-22T11:33:13;5;5;
64613;PMS5003;51025;37.772;-122.432;2023-06-22T11:35:41;7;5;
64613;PMS5003;51025;37.772;-122.432;2023-06-22T11:38:09;7;5;
64613;PMS5003;51025;37.772;-122.432;2023-06-22T11:40:38;6;4;
64613;PMS5003;51025;37.772;-122.432;2023-06-22T11:43:06;9;8;
64613;PMS5003;51025;37.772;-122.432;2023-06-22T11:45:34;5;5;
64613;PMS5003;51025;37.772;-122.432;2023-06-22T11:48:02;6;5;
64613;PMS5003;51025;37.772;-122.432;2023-06-22T11:50:31;11;8;
64613;PMS5003;51025;37.772;-122.432;2023-06-22T11:52:59;5;4;
64613;PMS5003;51025;37.772;-122.432;2023-06-22T11:55:28;6;5;
64613;PMS5003;51025;37.772;-122.432;2023-06-22T11:57:56;4;4;
64613;PMS5003;51025;37.772;-122.432;2023-06-22T12:00:25;7;7;
64613;PMS5003;51025;37.772;-122.432;2023-06-22T12:02:54;6;5;
64613;PMS5003;51025;37.772;-122.432;2023-06-22T12:05:22;7;7;
64613;PMS5003;51025;37.772;-122.432;2023-06-22T12:07:50;5;5;
64613;PMS5003;51025;37.772;-122.432;2023-06-22T12:10:21;7;6;
64613;PMS5003;51025;37.772;-122.432;2023-06-22T12:12:49;8;6;
64613;PMS5003;51025;37.772;-122.432;2023-06-22T12:15:17;8;5;
64613;PMS5003;51025;37.772;-122.432;2023-06-22T12:17:46;7;5;
64613;PMS5003;51025;37.772;-122.432;2023-06-22T12:20:15;13;13;
64613;PMS5003;51025;37.772;-122.432;2023-06-22T12:22:44;9;7;
64613;PMS5003;51025;37.772;-122.432;2023-06-22T12:25:12;8;8;
64613;PMS5003;51025;37.772;-122.432;2023-06-22T12:27:40;5;5;
64613;PMS5003;51025;37.772;-122.432;2023-06-22T12:30:08;7;5;
64613;PMS5003;51025;37.772;-122.432;2023-06-22T12:32:37;6;5;
64613;PMS5003;51025;37.772;-122.432;2023-06-22T12:35:06;7;6;
64613;PMS5003;51025;37.772;-122.432;2023-06-22T12:37:35;6;6;
64613;PMS5003;51025;37.772;-122.432;2023-06-22T12:40:03;7;7;
64613;PMS5003;51025;37.772;-122.432;2023-06-22T12:42:33;10;10;
64613;PMS5003;51025;37.772;-122.432;2023-06-22T12:45:01;5;4;
64613;PMS5003;51025;37.772;-122.432;2023-06-22T12:47:29;7;6;
64613;PMS5003;51025;37.772;-122.432;2023-06-22T12:49:58;4;3;
64613;PMS5003;51025;37.772;-122.432;2023-06-22T12:52:26;6;6;
64613;PMS5003;51025;37.772;-122.432;2023-06-22T12:54:57;6;5;
64613;PMS5003;51025;37.772;-122.432;2023-06-22T12:57:25;5;4;
64613;PMS5003;51025;37.772;-122.432;2023-06-22T12:59:53;8;5;
64613;PMS5003;51025;37.772;-122.432;2023-06-22T13:02:24;9;7;
64613;PMS5003;51025;37.772;-122.432;2023-06-22T13:04:52;7;7;
64613;PMS5003;51025;37.772;-122.432;2023-06-22T13:07:22;7;7;
64613;PMS5003;51025;37.772;-122.432;2023-06-22T13:09:50;6;5;
64613;PMS5003;51025;37.772;-122.432;2023-06-22T13:12:19;4;3;
64613;PMS5003;51025;37.772;-122.432;2023-06-22T13:14:48;8;5;
64613;PMS5003;51025;37.772;-122.432;2023-06-22T13:17:16;6;5;
64613;PMS5003;51025;37.772;-122.432;2023-06-22T13:19:45;4;4;
64613;PMS5003;51025;37.772;-122.432;2023-06-22T13:22:25;9;7;
64613;PMS5003;51025;37.772;-122.432;2023-06-22T13:24:55;6;6;
64613;PMS5003;51025;37.772;-122.432;2023-06-22T13:27:24;5;5;
64613;PMS5003;51025;37.772;-122.432;2023-06-22T13:29:53;6;6;
64613;PMS5003;51025;37.772;-122.432;2023-06-22T13:32:21;6;5;
64613;PMS5003;51025;37.772;-122.432;2023-06-22T13:34:49;8;7;
64613;PMS5003;51025;37.772;-122.432;2023-06-22T13:37:19;6;6;
64613;PMS5003;51025;37.772;-122.432;2023-06-22T13:39:47;7;5;
64613;PMS5003;51025;37.772;-122.432;2023-06-22T13:42:15;6;6;
64613;PMS5003;51025;37.772;-122.432;2023-06-22T13:44:44;7;5;
64613;PMS5003;51025;37.772;-122.432;2023-06-22T13:47:12;6;6;
64613;PMS5003;51025;37.772;-122.432;2023-06-22T13:49:40;5;4;
64613;PMS5003;51025;37.772;-122.432;2023-06-22T13:52:09;7;5;
64613;PMS5003;51025;37.772;-122.432;2023-06-22T13:54:37;6;5;
64613;PMS5003;51025;37.772;-122.432;2023-06-22T13:57:06;7;6;
64613;PMS5003;51025;37.772;-122.432;2023-06-22T13:59:34;6;5;
64613;PMS5003;51025;37.772;-122.432;2023-06-22T14:02:03;6;6;
64613;PMS5003;51025;37.772;-122.432;2023-06-22T14:04:31;6;5;
64613;PMS5003;51025;37.772;-122.432;2023-06-22T14:06:59;6;6;
64613;PMS5003;51025;37.772;-122.432;2023-06-22T14:09:28;6;4;
64613;PMS5003;51025;37.772;-122.432;2023-06-22T14:11:56;5;5;
64613;PMS5003;51025;37.772;-122.432;2023-06-22T14:14:24;7;4;
64613;PMS5003;51025;37.772;-122.432;2023-06-22T14:16:52;4;4;
64613;PMS5003;51025;37.772;-122.432;2023-06-22T14:19:20;7;5;
64613;PMS5003;51025;37.772;-122.432;2023-06-22T14:21:49;6;5;
64613;PMS5003;51025;37.772;-122.432;2023-06-22T14:24:18;7;6;
64613;PMS5003;51025;37.772;-122.432;2023-06-22T14:26:46;5;4;
64613;PMS5003;51025;37.772;-122.432;2023-06-22T14:29:15;7;6;
64613;PMS5003;51025;37.772;-122.432;2023-06-22T14:31:45;3;3;
64613;PMS5003;51025;37.772;-122.432;2023-06-22T14:34:15;5;5;
64613;PMS5003;51025;37.772;-122.432;2023-06-22T14:36:44;7;6;
64613;PMS5003;51025;37.772;-122.432;2023-06-22T14:39:12;6;4;
64613;PMS5003;51025;37.772;-122.432;2023-06-22T14:41:40;5;5;
64613;PMS5003;51025;37.772;-122.432;2023-06-22T14:44:08;8;6;
64613;PMS5003;51025;37.772;-122.432;2023-06-22T14:46:36;7;5;
64613;PMS5003;51025;37.772;-122.432;2023-06-22T14:49:04;7;6;
64613;PMS5003;51025;37.772;-122.432;2023-06-22T14:51:32;7;6;
64613;PMS5003;51025;37.772;-122.432;2023-06-22T14:54:00;5;5;
64613;PMS5003;51025;37.772;-122.432;2023-06-22T14:56:29;8;5;
64613;PMS5003;51025;37.772;-122.432;2023-06-22T14:58:57;4;4;
64613;PMS5003;51025;37.772;-122.432;2023-06-22T15:01:25;9;5;
64613;PMS5003;51025;37.772;-122.432;2023-06-22T15:03:53;6;6;
64613;PMS5003;51025;37.772;-122.432;2023-06-22T15:06:21;6;5;
64613;PMS5003;51025;37.772;-122.432;2023-06-22T15:08:50;6;5;
64613;PMS5003;51025;37.772;-122.432;2023-06-22T15:11:20;5;5;
64613;PMS5003;51025;37.772;-122.432;2023-06-22T15:13:49;5;4;
64613;PMS5003;51025;37.772;-122.432;2023-06-22T15:16:17;7;5;
64613;PMS5003;51025;37.772;-122.432;2023-06-22T15:18:45;4;4;
64613;PMS5003;51025;37.772;-122.432;2023-06-22T15:21:13;4;3;
64613;PMS5003;51025;37.772;-122.432;2023-06-22T15:23:42;6;4;
64613;PMS5003;51025;37.772;-122.432;2023-06-22T15:26:10;4;4;
64613;PMS5003;51025;37.772;-122.432;2023-06-22T15:28:39;10;4;
64613;PMS5003;51025;37.772;-122.432;2023-06-22T15:31:07;10;6;
64613;PMS5003;51025;37.772;-122.432;2023-06-22T15:33:35;5;5;
64613;PMS5003;51025;37.772;-122.432;2023-06-22T15:36:04;5;4;
64613;PMS5003;51025;37.772;-122.432;2023-06-22T15:38:32;7;7;
64613;PMS5003;51025;37.772;-122.432;2023-06-22T15:41:00;3;3;
64613;PMS5003;51025;37.772;-122.432;2023-06-22T15:43:28;6;4;
64613;PMS5003;51025;37.772;-122.432;2023-06-22T15:45:56;5;5;
64613;PMS5003;51025;37.772;-122.432;2023-06-22T15:48:24;8;6;
64613;PMS5003;51025;37.772;-122.432;2023-06-22T15:50:53;6;5;
64613;PMS5003;51025;37.772;-122.432;2023-06-22T15:53:21;5;5;
64613;PMS5003;51025;37.772;-122.432;2023-06-22T15:55:49;6;5;